sensor_id;sensor_type;location;lat;lon;timestamp;P1;durP1;ratioP1;P2;durP2;ratioP2
22924;SDS011;11628;51.072;3.712;2023-06-14T00:00:07;9.63;;;5.40;;
22924;SDS011;11628;51.072;3.712;2023-06-14T00:02:33;10.68;;;5.38;;
22924;SDS011;11628;51.072;3.712;2023-06-14T00:04:59;7.55;;;4.90;;
22924;SDS011;11628;51.072;3.712;2023-06-14T00:07:35;6.78;;;5.47;;
22924;SDS011;11628;51.072;3.712;2023-06-14T00:10:02;8.88;;;5.85;;
22924;SDS011;11628;51.072;3.712;2023-06-14T00:12:29;7.47;;;5.65;;
22924;SDS011;11628;51.072;3.712;2023-06-14T00:14:55;8.40;;;5.68;;
22924;SDS011;11628;51.072;3.712;2023-06-14T00:17:20;9.43;;;5.57;;
22924;SDS011;11628;51.072;3.712;2023-06-14T00:19:46;7.55;;;5.90;;
22924;SDS011;11628;51.072;3.712;2023-06-14T00:22:12;8.05;;;5.70;;
22924;SDS011;11628;51.072;3.712;2023-06-14T00:24:38;7.10;;;5.22;;
22924;SDS011;11628;51.072;3.712;2023-06-14T00:27:03;8.88;;;5.30;;
22924;SDS011;11628;51.072;3.712;2023-06-14T00:29:30;6.57;;;5.70;;
22924;SDS011;11628;51.072;3.712;2023-06-14T00:31:56;8.27;;;5.38;;
22924;SDS011;11628;51.072;3.712;2023-06-14T00:34:21;8.48;;;6.05;;
22924;SDS011;11628;51.072;3.712;2023-06-14T00:36:47;7.78;;;6.15;;
22924;SDS011;11628;51.072;3.712;2023-06-14T00:39:13;9.65;;;6.32;;
22924;SDS011;11628;51.072;3.712;2023-06-14T00:41:39;6.50;;;5.72;;
22924;SDS011;11628;51.072;3.712;2023-06-14T00:44:05;8.15;;;7.10;;
22924;SDS011;11628;51.072;3.712;2023-06-14T00:46:31;9.60;;;6.85;;
22924;SDS011;11628;51.072;3.712;2023-06-14T00:48:57;8.73;;;6.53;;
22924;SDS011;11628;51.072;3.712;2023-06-14T00:51:25;10.35;;;7.07;;
22924;SDS011;11628;51.072;3.712;2023-06-14T00:53:52;8.63;;;7.20;;
22924;SDS011;11628;51.072;3.712;2023-06-14T00:56:18;9.85;;;7.20;;
22924;SDS011;11628;51.072;3.712;2023-06-14T00:58:45;8.02;;;7.22;;
22924;SDS011;11628;51.072;3.712;2023-06-14T01:01:11;7.90;;;7.10;;
22924;SDS011;11628;51.072;3.712;2023-06-14T01:03:37;10.35;;;7.32;;
22924;SDS011;11628;51.072;3.712;2023-06-14T01:14:18;10.00;;;8.38;;
22924;SDS011;11628;51.072;3.712;2023-06-14T01:16:46;16.92;;;11.00;;
22924;SDS011;11628;51.072;3.712;2023-06-14T01:19:12;15.35;;;10.93;;
22924;SDS011;11628;51.072;3.712;2023-06-14T01:21:40;19.10;;;10.90;;
22924;SDS011;11628;51.072;3.712;2023-06-14T01:24:07;19.42;;;11.27;;
22924;SDS011;11628;51.072;3.712;2023-06-14T01:26:34;16.08;;;11.30;;
22924;SDS011;11628;51.072;3.712;2023-06-14T01:29:02;16.35;;;11.20;;
22924;SDS011;11628;51.072;3.712;2023-06-14T01:31:28;18.67;;;11.02;;
22924;SDS011;11628;51.072;3.712;2023-06-14T01:34:04;15.80;;;9.35;;
22924;SDS011;11628;51.072;3.712;2023-06-14T01:36:30;15.57;;;10.68;;
22924;SDS011;11628;51.072;3.712;2023-06-14T01:38:56;13.38;;;10.40;;
22924;SDS011;11628;51.072;3.712;2023-06-14T01:41:24;14.48;;;9.60;;
22924;SDS011;11628;51.072;3.712;2023-06-14T01:43:51;14.88;;;9.13;;
22924;SDS011;11628;51.072;3.712;2023-06-14T01:46:17;12.57;;;8.25;;
22924;SDS011;11628;51.072;3.712;2023-06-14T01:48:45;12.63;;;8.48;;
22924;SDS011;11628;51.072;3.712;2023-06-14T01:51:10;9.95;;;7.75;;
22924;SDS011;11628;51.072;3.712;2023-06-14T01:53:36;16.17;;;8.52;;
22924;SDS011;11628;51.072;3.712;2023-06-14T01:56:02;12.68;;;6.88;;
22924;SDS011;11628;51.072;3.712;2023-06-14T01:58:28;11.25;;;7.50;;
22924;SDS011;11628;51.072;3.712;2023-06-14T02:00:54;14.15;;;7.78;;
22924;SDS011;11628;51.072;3.712;2023-06-14T02:03:23;11.68;;;7.38;;
22924;SDS011;11628;51.072;3.712;2023-06-14T02:05:49;19.05;;;8.20;;
22924;SDS011;11628;51.072;3.712;2023-06-14T02:08:15;15.23;;;8.45;;
22924;SDS011;11628;51.072;3.712;2023-06-14T02:10:41;13.82;;;7.07;;
22924;SDS011;11628;51.072;3.712;2023-06-14T02:13:06;18.20;;;7.55;;
22924;SDS011;11628;51.072;3.712;2023-06-14T02:15:32;12.07;;;7.07;;
22924;SDS011;11628;51.072;3.712;2023-06-14T02:18:01;14.25;;;6.93;;
22924;SDS011;11628;51.072;3.712;2023-06-14T02:20:28;13.00;;;6.90;;
22924;SDS011;11628;51.072;3.712;2023-06-14T02:22:54;14.30;;;7.20;;
22924;SDS011;11628;51.072;3.712;2023-06-14T02:25:20;24.80;;;8.05;;
22924;SDS011;11628;51.072;3.712;2023-06-14T02:27:45;12.93;;;6.50;;
22924;SDS011;11628;51.072;3.712;2023-06-14T02:30:11;16.98;;;6.40;;
22924;SDS011;11628;51.072;3.712;2023-06-14T02:32:37;10.82;;;6.50;;
22924;SDS011;11628;51.072;3.712;2023-06-14T02:35:03;10.93;;;6.15;;
22924;SDS011;11628;51.072;3.712;2023-06-14T02:37:29;11.90;;;7.00;;
22924;SDS011;11628;51.072;3.712;2023-06-14T02:39:55;9.70;;;6.95;;
22924;SDS011;11628;51.072;3.712;2023-06-14T02:42:21;10.75;;;6.43;;
22924;SDS011;11628;51.072;3.712;2023-06-14T02:44:47;11.63;;;6.53;;
22924;SDS011;11628;51.072;3.712;2023-06-14T02:47:16;9.85;;;6.50;;
22924;SDS011;11628;51.072;3.712;2023-06-14T02:49:45;9.77;;;6.70;;
22924;SDS011;11628;51.072;3.712;2023-06-14T02:52:13;8.90;;;6.85;;
22924;SDS011;11628;51.072;3.712;2023-06-14T02:54:39;8.30;;;6.50;;
22924;SDS011;11628;51.072;3.712;2023-06-14T02:57:05;9.48;;;6.50;;
22924;SDS011;11628;51.072;3.712;2023-06-14T02:59:32;8.50;;;6.53;;
22924;SDS011;11628;51.072;3.712;2023-06-14T03:01:58;10.45;;;7.63;;
22924;SDS011;11628;51.072;3.712;2023-06-14T03:04:24;13.38;;;6.80;;
22924;SDS011;11628;51.072;3.712;2023-06-14T03:06:51;8.55;;;6.78;;
22924;SDS011;11628;51.072;3.712;2023-06-14T03:09:18;10.55;;;7.28;;
22924;SDS011;11628;51.072;3.712;2023-06-14T03:11:45;12.73;;;6.60;;
22924;SDS011;11628;51.072;3.712;2023-06-14T03:14:11;9.45;;;6.85;;
22924;SDS011;11628;51.072;3.712;2023-06-14T03:16:38;11.13;;;6.38;;
22924;SDS011;11628;51.072;3.712;2023-06-14T03:19:04;11.52;;;6.85;;
22924;SDS011;11628;51.072;3.712;2023-06-14T03:21:30;24.30;;;8.05;;
22924;SDS011;11628;51.072;3.712;2023-06-14T03:23:55;12.02;;;6.38;;
22924;SDS011;11628;51.072;3.712;2023-06-14T03:26:21;12.93;;;7.22;;
22924;SDS011;11628;51.072;3.712;2023-06-14T03:28:47;14.30;;;6.75;;
22924;SDS011;11628;51.072;3.712;2023-06-14T03:31:16;13.20;;;6.68;;
22924;SDS011;11628;51.072;3.712;2023-06-14T03:33:41;14.90;;;6.50;;
22924;SDS011;11628;51.072;3.712;2023-06-14T03:36:07;12.05;;;6.85;;
22924;SDS011;11628;51.072;3.712;2023-06-14T03:38:33;12.20;;;6.72;;
22924;SDS011;11628;51.072;3.712;2023-06-14T03:40:59;7.60;;;6.22;;
22924;SDS011;11628;51.072;3.712;2023-06-14T03:43:25;10.27;;;6.15;;
22924;SDS011;11628;51.072;3.712;2023-06-14T03:45:51;8.60;;;6.38;;
22924;SDS011;11628;51.072;3.712;2023-06-14T03:48:16;12.32;;;6.57;;
22924;SDS011;11628;51.072;3.712;2023-06-14T03:50:42;11.80;;;6.55;;
22924;SDS011;11628;51.072;3.712;2023-06-14T03:53:09;13.48;;;6.18;;
22924;SDS011;11628;51.072;3.712;2023-06-14T03:55:35;12.48;;;7.10;;
22924;SDS011;11628;51.072;3.712;2023-06-14T03:58:02;10.82;;;5.80;;
22924;SDS011;11628;51.072;3.712;2023-06-14T04:00:28;11.13;;;7.28;;
22924;SDS011;11628;51.072;3.712;2023-06-14T04:02:54;11.57;;;6.53;;
22924;SDS011;11628;51.072;3.712;2023-06-14T04:05:20;7.88;;;6.15;;
22924;SDS011;11628;51.072;3.712;2023-06-14T04:07:46;13.27;;;6.32;;
22924;SDS011;11628;51.072;3.712;2023-06-14T04:10:14;8.30;;;6.15;;
22924;SDS011;11628;51.072;3.712;2023-06-14T04:12:41;11.77;;;6.78;;
22924;SDS011;11628;51.072;3.712;2023-06-14T04:15:07;11.10;;;6.93;;
22924;SDS011;11628;51.072;3.712;2023-06-14T04:17:34;9.35;;;5.78;;
22924;SDS011;11628;51.072;3.712;2023-06-14T04:20:00;9.15;;;6.32;;
22924;SDS011;11628;51.072;3.712;2023-06-14T04:22:26;10.07;;;7.32;;
22924;SDS011;11628;51.072;3.712;2023-06-14T04:24:56;7.82;;;6.82;;
22924;SDS011;11628;51.072;3.712;2023-06-14T04:27:22;9.23;;;6.45;;
22924;SDS011;11628;51.072;3.712;2023-06-14T04:29:54;17.20;;;7.32;;
22924;SDS011;11628;51.072;3.712;2023-06-14T04:32:24;10.02;;;6.53;;
22924;SDS011;11628;51.072;3.712;2023-06-14T04:34:52;12.63;;;7.03;;
22924;SDS011;11628;51.072;3.712;2023-06-14T04:37:22;9.50;;;6.28;;
22924;SDS011;11628;51.072;3.712;2023-06-14T04:39:48;13.40;;;6.30;;
22924;SDS011;11628;51.072;3.712;2023-06-14T04:42:15;13.90;;;6.63;;
22924;SDS011;11628;51.072;3.712;2023-06-14T04:44:42;9.90;;;6.32;;
22924;SDS011;11628;51.072;3.712;2023-06-14T04:47:08;10.52;;;6.80;;
22924;SDS011;11628;51.072;3.712;2023-06-14T04:49:41;9.05;;;6.80;;
22924;SDS011;11628;51.072;3.712;2023-06-14T04:52:07;9.98;;;6.78;;
22924;SDS011;11628;51.072;3.712;2023-06-14T04:54:35;11.13;;;6.13;;
22924;SDS011;11628;51.072;3.712;2023-06-14T04:57:03;18.60;;;7.57;;
22924;SDS011;11628;51.072;3.712;2023-06-14T04:59:30;12.38;;;6.78;;
22924;SDS011;11628;51.072;3.712;2023-06-14T05:01:58;17.23;;;6.95;;
22924;SDS011;11628;51.072;3.712;2023-06-14T05:04:25;17.50;;;6.57;;
22924;SDS011;11628;51.072;3.712;2023-06-14T05:06:52;18.65;;;7.60;;
22924;SDS011;11628;51.072;3.712;2023-06-14T05:09:19;20.67;;;7.68;;
22924;SDS011;11628;51.072;3.712;2023-06-14T05:11:46;12.50;;;7.28;;
22924;SDS011;11628;51.072;3.712;2023-06-14T05:14:12;20.38;;;7.70;;
22924;SDS011;11628;51.072;3.712;2023-06-14T05:16:39;10.13;;;7.32;;
22924;SDS011;11628;51.072;3.712;2023-06-14T05:19:05;11.52;;;8.15;;
22924;SDS011;11628;51.072;3.712;2023-06-14T05:21:31;14.85;;;8.15;;
22924;SDS011;11628;51.072;3.712;2023-06-14T05:23:58;14.65;;;8.68;;
22924;SDS011;11628;51.072;3.712;2023-06-14T05:26:24;11.80;;;7.35;;
22924;SDS011;11628;51.072;3.712;2023-06-14T05:28:54;12.02;;;7.90;;
22924;SDS011;11628;51.072;3.712;2023-06-14T05:31:21;19.98;;;8.27;;
22924;SDS011;11628;51.072;3.712;2023-06-14T05:33:48;13.90;;;8.13;;
22924;SDS011;11628;51.072;3.712;2023-06-14T05:36:15;16.13;;;7.40;;
22924;SDS011;11628;51.072;3.712;2023-06-14T05:38:40;13.45;;;8.32;;
22924;SDS011;11628;51.072;3.712;2023-06-14T05:41:06;17.25;;;8.02;;
22924;SDS011;11628;51.072;3.712;2023-06-14T05:43:32;15.82;;;9.13;;
22924;SDS011;11628;51.072;3.712;2023-06-14T05:45:57;18.63;;;9.02;;
22924;SDS011;11628;51.072;3.712;2023-06-14T05:48:23;17.17;;;9.00;;
22924;SDS011;11628;51.072;3.712;2023-06-14T05:50:49;17.83;;;8.35;;
22924;SDS011;11628;51.072;3.712;2023-06-14T05:53:15;14.23;;;9.10;;
22924;SDS011;11628;51.072;3.712;2023-06-14T05:55:41;14.93;;;9.05;;
22924;SDS011;11628;51.072;3.712;2023-06-14T05:58:06;14.18;;;8.65;;
22924;SDS011;11628;51.072;3.712;2023-06-14T06:00:32;13.95;;;8.32;;
22924;SDS011;11628;51.072;3.712;2023-06-14T06:02:58;10.93;;;8.18;;
22924;SDS011;11628;51.072;3.712;2023-06-14T06:05:24;14.20;;;8.73;;
22924;SDS011;11628;51.072;3.712;2023-06-14T06:07:50;18.02;;;9.13;;
22924;SDS011;11628;51.072;3.712;2023-06-14T06:10:16;26.42;;;10.02;;
22924;SDS011;11628;51.072;3.712;2023-06-14T06:12:41;10.77;;;9.00;;
22924;SDS011;11628;51.072;3.712;2023-06-14T06:15:08;14.80;;;7.95;;
22924;SDS011;11628;51.072;3.712;2023-06-14T06:17:37;11.70;;;8.88;;
22924;SDS011;11628;51.072;3.712;2023-06-14T06:20:03;12.38;;;8.63;;
22924;SDS011;11628;51.072;3.712;2023-06-14T06:22:30;13.68;;;8.13;;
22924;SDS011;11628;51.072;3.712;2023-06-14T06:24:56;12.82;;;7.97;;
22924;SDS011;11628;51.072;3.712;2023-06-14T06:27:22;13.25;;;9.10;;
22924;SDS011;11628;51.072;3.712;2023-06-14T06:29:47;12.55;;;8.68;;
22924;SDS011;11628;51.072;3.712;2023-06-14T06:32:14;11.55;;;7.65;;
22924;SDS011;11628;51.072;3.712;2023-06-14T06:34:40;12.13;;;7.47;;
22924;SDS011;11628;51.072;3.712;2023-06-14T06:37:06;12.23;;;8.57;;
22924;SDS011;11628;51.072;3.712;2023-06-14T06:39:32;14.30;;;8.20;;
22924;SDS011;11628;51.072;3.712;2023-06-14T06:41:58;10.93;;;7.20;;
22924;SDS011;11628;51.072;3.712;2023-06-14T06:44:24;12.43;;;8.32;;
22924;SDS011;11628;51.072;3.712;2023-06-14T06:46:49;12.15;;;8.35;;
22924;SDS011;11628;51.072;3.712;2023-06-14T06:49:15;11.73;;;8.52;;
22924;SDS011;11628;51.072;3.712;2023-06-14T06:51:41;13.55;;;8.15;;
22924;SDS011;11628;51.072;3.712;2023-06-14T06:54:08;10.70;;;7.97;;
22924;SDS011;11628;51.072;3.712;2023-06-14T06:56:34;12.63;;;7.70;;
22924;SDS011;11628;51.072;3.712;2023-06-14T06:59:00;9.90;;;7.65;;
22924;SDS011;11628;51.072;3.712;2023-06-14T07:01:26;14.20;;;7.30;;
22924;SDS011;11628;51.072;3.712;2023-06-14T07:03:54;12.48;;;7.70;;
22924;SDS011;11628;51.072;3.712;2023-06-14T07:06:20;11.85;;;8.38;;
22924;SDS011;11628;51.072;3.712;2023-06-14T07:08:46;14.07;;;7.82;;
22924;SDS011;11628;51.072;3.712;2023-06-14T07:11:15;14.60;;;9.60;;
22924;SDS011;11628;51.072;3.712;2023-06-14T07:13:41;11.18;;;7.53;;
22924;SDS011;11628;51.072;3.712;2023-06-14T07:16:07;10.73;;;7.53;;
22924;SDS011;11628;51.072;3.712;2023-06-14T07:18:32;13.43;;;7.30;;
22924;SDS011;11628;51.072;3.712;2023-06-14T07:20:58;19.02;;;12.73;;
22924;SDS011;11628;51.072;3.712;2023-06-14T07:23:24;15.75;;;8.73;;
22924;SDS011;11628;51.072;3.712;2023-06-14T07:25:50;9.45;;;7.00;;
22924;SDS011;11628;51.072;3.712;2023-06-14T07:28:16;12.10;;;7.25;;
22924;SDS011;11628;51.072;3.712;2023-06-14T07:30:43;8.02;;;6.88;;
22924;SDS011;11628;51.072;3.712;2023-06-14T07:33:08;11.13;;;6.70;;
22924;SDS011;11628;51.072;3.712;2023-06-14T07:35:35;11.60;;;6.80;;
22924;SDS011;11628;51.072;3.712;2023-06-14T07:38:01;11.68;;;7.15;;
22924;SDS011;11628;51.072;3.712;2023-06-14T07:40:26;11.40;;;8.32;;
22924;SDS011;11628;51.072;3.712;2023-06-14T07:42:52;16.25;;;9.18;;
22924;SDS011;11628;51.072;3.712;2023-06-14T07:45:19;17.27;;;9.20;;
22924;SDS011;11628;51.072;3.712;2023-06-14T07:47:45;16.42;;;8.20;;
22924;SDS011;11628;51.072;3.712;2023-06-14T07:50:11;17.05;;;9.23;;
22924;SDS011;11628;51.072;3.712;2023-06-14T07:52:37;16.58;;;8.93;;
22924;SDS011;11628;51.072;3.712;2023-06-14T07:55:03;15.15;;;9.90;;
22924;SDS011;11628;51.072;3.712;2023-06-14T07:57:30;16.55;;;9.13;;
22924;SDS011;11628;51.072;3.712;2023-06-14T07:59:56;15.30;;;9.23;;
22924;SDS011;11628;51.072;3.712;2023-06-14T08:02:21;15.70;;;8.07;;
22924;SDS011;11628;51.072;3.712;2023-06-14T08:04:47;16.15;;;7.80;;
22924;SDS011;11628;51.072;3.712;2023-06-14T08:07:14;13.13;;;8.40;;
22924;SDS011;11628;51.072;3.712;2023-06-14T08:09:41;16.95;;;7.82;;
22924;SDS011;11628;51.072;3.712;2023-06-14T08:12:07;15.40;;;9.10;;
22924;SDS011;11628;51.072;3.712;2023-06-14T08:14:34;14.70;;;8.77;;
22924;SDS011;11628;51.072;3.712;2023-06-14T08:17:00;15.50;;;7.93;;
22924;SDS011;11628;51.072;3.712;2023-06-14T08:19:26;16.02;;;7.85;;
22924;SDS011;11628;51.072;3.712;2023-06-14T08:21:52;12.18;;;8.27;;
22924;SDS011;11628;51.072;3.712;2023-06-14T08:24:20;16.05;;;8.60;;
22924;SDS011;11628;51.072;3.712;2023-06-14T08:26:49;13.57;;;7.85;;
22924;SDS011;11628;51.072;3.712;2023-06-14T08:29:15;10.68;;;7.43;;
22924;SDS011;11628;51.072;3.712;2023-06-14T08:31:41;13.15;;;7.57;;
22924;SDS011;11628;51.072;3.712;2023-06-14T08:34:06;12.10;;;8.48;;
22924;SDS011;11628;51.072;3.712;2023-06-14T08:36:32;10.40;;;7.63;;
22924;SDS011;11628;51.072;3.712;2023-06-14T08:38:58;8.65;;;6.80;;
22924;SDS011;11628;51.072;3.712;2023-06-14T08:41:23;15.73;;;6.70;;
22924;SDS011;11628;51.072;3.712;2023-06-14T08:43:50;10.13;;;6.45;;
22924;SDS011;11628;51.072;3.712;2023-06-14T08:46:17;9.73;;;5.80;;
22924;SDS011;11628;51.072;3.712;2023-06-14T08:48:48;8.82;;;6.47;;
22924;SDS011;11628;51.072;3.712;2023-06-14T08:51:16;7.70;;;6.93;;
22924;SDS011;11628;51.072;3.712;2023-06-14T08:56:24;13.57;;;6.20;;
22924;SDS011;11628;51.072;3.712;2023-06-14T08:58:52;12.02;;;6.50;;
22924;SDS011;11628;51.072;3.712;2023-06-14T09:01:18;9.75;;;6.18;;
22924;SDS011;11628;51.072;3.712;2023-06-14T09:03:46;9.00;;;6.53;;
22924;SDS011;11628;51.072;3.712;2023-06-14T09:06:14;12.70;;;7.18;;
22924;SDS011;11628;51.072;3.712;2023-06-14T09:08:44;11.23;;;6.82;;
22924;SDS011;11628;51.072;3.712;2023-06-14T09:11:15;9.20;;;6.28;;
22924;SDS011;11628;51.072;3.712;2023-06-14T09:13:43;11.50;;;5.88;;
22924;SDS011;11628;51.072;3.712;2023-06-14T09:16:09;10.20;;;6.47;;
22924;SDS011;11628;51.072;3.712;2023-06-14T09:18:39;10.18;;;6.38;;
22924;SDS011;11628;51.072;3.712;2023-06-14T09:21:10;9.63;;;6.32;;
22924;SDS011;11628;51.072;3.712;2023-06-14T09:23:36;13.50;;;6.22;;
22924;SDS011;11628;51.072;3.712;2023-06-14T09:26:09;13.32;;;6.15;;
22924;SDS011;11628;51.072;3.712;2023-06-14T09:28:40;10.75;;;5.95;;
22924;SDS011;11628;51.072;3.712;2023-06-14T09:31:08;6.72;;;5.75;;
22924;SDS011;11628;51.072;3.712;2023-06-14T09:33:35;10.20;;;5.80;;
22924;SDS011;11628;51.072;3.712;2023-06-14T09:36:01;9.63;;;6.28;;
22924;SDS011;11628;51.072;3.712;2023-06-14T09:38:26;7.00;;;5.93;;
22924;SDS011;11628;51.072;3.712;2023-06-14T09:40:52;8.05;;;5.30;;
22924;SDS011;11628;51.072;3.712;2023-06-14T09:43:21;13.05;;;8.25;;
22924;SDS011;11628;51.072;3.712;2023-06-14T09:45:47;11.48;;;5.70;;
22924;SDS011;11628;51.072;3.712;2023-06-14T09:48:13;11.25;;;5.50;;
22924;SDS011;11628;51.072;3.712;2023-06-14T09:50:44;7.82;;;5.30;;
22924;SDS011;11628;51.072;3.712;2023-06-14T09:53:11;13.30;;;5.68;;
22924;SDS011;11628;51.072;3.712;2023-06-14T09:55:38;6.63;;;5.00;;
22924;SDS011;11628;51.072;3.712;2023-06-14T09:58:07;10.52;;;5.07;;
22924;SDS011;11628;51.072;3.712;2023-06-14T10:00:33;12.07;;;5.00;;
22924;SDS011;11628;51.072;3.712;2023-06-14T10:03:00;8.15;;;5.07;;
22924;SDS011;11628;51.072;3.712;2023-06-14T10:08:02;7.63;;;4.88;;
22924;SDS011;11628;51.072;3.712;2023-06-14T10:10:41;8.00;;;4.90;;
22924;SDS011;11628;51.072;3.712;2023-06-14T10:13:07;7.43;;;5.13;;
22924;SDS011;11628;51.072;3.712;2023-06-14T10:18:35;6.40;;;4.95;;
22924;SDS011;11628;51.072;3.712;2023-06-14T10:23:42;8.15;;;5.32;;
22924;SDS011;11628;51.072;3.712;2023-06-14T10:26:13;9.27;;;5.25;;
22924;SDS011;11628;51.072;3.712;2023-06-14T10:28:47;9.25;;;8.35;;
22924;SDS011;11628;51.072;3.712;2023-06-14T10:31:47;19.63;;;6.90;;
22924;SDS011;11628;51.072;3.712;2023-06-14T10:34:12;6.15;;;5.50;;
22924;SDS011;11628;51.072;3.712;2023-06-14T10:36:50;6.15;;;5.00;;
22924;SDS011;11628;51.072;3.712;2023-06-14T10:39:27;9.65;;;4.85;;
22924;SDS011;11628;51.072;3.712;2023-06-14T10:41:54;9.30;;;4.93;;
22924;SDS011;11628;51.072;3.712;2023-06-14T10:46:46;9.23;;;4.63;;
22924;SDS011;11628;51.072;3.712;2023-06-14T10:49:15;6.28;;;5.45;;
22924;SDS011;11628;51.072;3.712;2023-06-14T10:51:53;9.18;;;4.82;;
22924;SDS011;11628;51.072;3.712;2023-06-14T10:54:23;6.70;;;4.82;;
22924;SDS011;11628;51.072;3.712;2023-06-14T10:56:52;12.18;;;5.53;;
22924;SDS011;11628;51.072;3.712;2023-06-14T10:59:20;6.30;;;4.80;;
22924;SDS011;11628;51.072;3.712;2023-06-14T11:04:51;8.00;;;4.47;;
22924;SDS011;11628;51.072;3.712;2023-06-14T11:10:13;12.40;;;5.28;;
22924;SDS011;11628;51.072;3.712;2023-06-14T11:12:48;7.35;;;4.88;;
22924;SDS011;11628;51.072;3.712;2023-06-14T11:15:14;8.02;;;4.53;;
22924;SDS011;11628;51.072;3.712;2023-06-14T11:17:49;6.72;;;5.30;;
22924;SDS011;11628;51.072;3.712;2023-06-14T11:20:18;7.03;;;4.63;;
22924;SDS011;11628;51.072;3.712;2023-06-14T11:22:44;8.27;;;5.00;;
22924;SDS011;11628;51.072;3.712;2023-06-14T11:25:14;5.90;;;4.93;;
22924;SDS011;11628;51.072;3.712;2023-06-14T11:27:42;7.13;;;4.90;;
22924;SDS011;11628;51.072;3.712;2023-06-14T11:30:08;6.03;;;4.55;;
22924;SDS011;11628;51.072;3.712;2023-06-14T11:32:39;11.23;;;4.85;;
22924;SDS011;11628;51.072;3.712;2023-06-14T11:35:06;7.20;;;5.20;;
22924;SDS011;11628;51.072;3.712;2023-06-14T11:37:33;6.47;;;4.88;;
22924;SDS011;11628;51.072;3.712;2023-06-14T11:39:59;6.30;;;4.70;;
22924;SDS011;11628;51.072;3.712;2023-06-14T11:42:28;8.77;;;4.72;;
22924;SDS011;11628;51.072;3.712;2023-06-14T11:44:54;7.88;;;5.35;;
22924;SDS011;11628;51.072;3.712;2023-06-14T11:47:20;7.03;;;4.53;;
22924;SDS011;11628;51.072;3.712;2023-06-14T11:49:46;6.15;;;4.32;;
22924;SDS011;11628;51.072;3.712;2023-06-14T11:52:12;6.18;;;4.75;;
22924;SDS011;11628;51.072;3.712;2023-06-14T11:54:38;6.00;;;4.32;;
22924;SDS011;11628;51.072;3.712;2023-06-14T11:57:05;7.55;;;4.55;;
22924;SDS011;11628;51.072;3.712;2023-06-14T11:59:32;8.30;;;4.80;;
22924;SDS011;11628;51.072;3.712;2023-06-14T12:02:08;5.40;;;4.90;;
22924;SDS011;11628;51.072;3.712;2023-06-14T12:04:35;6.43;;;5.00;;
22924;SDS011;11628;51.072;3.712;2023-06-14T12:12:22;7.00;;;5.22;;
22924;SDS011;11628;51.072;3.712;2023-06-14T12:14:50;5.83;;;4.50;;
22924;SDS011;11628;51.072;3.712;2023-06-14T12:17:17;6.25;;;4.25;;
22924;SDS011;11628;51.072;3.712;2023-06-14T12:19:44;10.50;;;4.53;;
22924;SDS011;11628;51.072;3.712;2023-06-14T12:22:11;9.20;;;4.93;;
22924;SDS011;11628;51.072;3.712;2023-06-14T12:24:38;5.57;;;4.45;;
22924;SDS011;11628;51.072;3.712;2023-06-14T12:27:04;8.73;;;4.95;;
22924;SDS011;11628;51.072;3.712;2023-06-14T12:29:30;7.28;;;4.78;;
22924;SDS011;11628;51.072;3.712;2023-06-14T12:31:57;5.50;;;4.43;;
22924;SDS011;11628;51.072;3.712;2023-06-14T12:34:23;7.68;;;5.40;;
22924;SDS011;11628;51.072;3.712;2023-06-14T12:36:52;7.75;;;5.10;;
22924;SDS011;11628;51.072;3.712;2023-06-14T12:39:18;6.93;;;5.10;;
22924;SDS011;11628;51.072;3.712;2023-06-14T12:41:45;6.60;;;5.00;;
22924;SDS011;11628;51.072;3.712;2023-06-14T12:44:12;7.35;;;5.10;;
22924;SDS011;11628;51.072;3.712;2023-06-14T12:46:38;6.97;;;4.68;;
22924;SDS011;11628;51.072;3.712;2023-06-14T12:49:05;8.27;;;4.75;;
22924;SDS011;11628;51.072;3.712;2023-06-14T12:51:33;6.70;;;4.82;;
22924;SDS011;11628;51.072;3.712;2023-06-14T12:53:58;7.28;;;5.45;;
22924;SDS011;11628;51.072;3.712;2023-06-14T12:56:24;8.50;;;4.50;;
22924;SDS011;11628;51.072;3.712;2023-06-14T12:58:51;7.85;;;4.95;;
22924;SDS011;11628;51.072;3.712;2023-06-14T13:01:17;7.22;;;4.82;;
22924;SDS011;11628;51.072;3.712;2023-06-14T13:03:43;5.68;;;5.05;;
22924;SDS011;11628;51.072;3.712;2023-06-14T13:06:08;7.00;;;4.68;;
22924;SDS011;11628;51.072;3.712;2023-06-14T13:08:34;7.03;;;4.95;;
22924;SDS011;11628;51.072;3.712;2023-06-14T13:11:00;6.40;;;4.78;;
22924;SDS011;11628;51.072;3.712;2023-06-14T13:13:26;8.15;;;4.65;;
22924;SDS011;11628;51.072;3.712;2023-06-14T13:15:51;8.10;;;4.75;;
22924;SDS011;11628;51.072;3.712;2023-06-14T13:18:17;9.10;;;5.05;;
22924;SDS011;11628;51.072;3.712;2023-06-14T13:20:45;10.82;;;4.43;;
22924;SDS011;11628;51.072;3.712;2023-06-14T13:23:11;10.10;;;5.80;;
22924;SDS011;11628;51.072;3.712;2023-06-14T13:25:38;6.32;;;4.43;;
22924;SDS011;11628;51.072;3.712;2023-06-14T13:28:04;4.95;;;4.47;;
22924;SDS011;11628;51.072;3.712;2023-06-14T13:30:31;4.85;;;4.18;;
22924;SDS011;11628;51.072;3.712;2023-06-14T13:32:57;5.65;;;4.38;;
22924;SDS011;11628;51.072;3.712;2023-06-14T13:35:23;6.32;;;4.30;;
22924;SDS011;11628;51.072;3.712;2023-06-14T13:37:49;10.75;;;4.70;;
22924;SDS011;11628;51.072;3.712;2023-06-14T13:40:15;6.25;;;4.65;;
22924;SDS011;11628;51.072;3.712;2023-06-14T13:42:41;6.97;;;4.45;;
22924;SDS011;11628;51.072;3.712;2023-06-14T13:45:08;7.35;;;4.13;;
22924;SDS011;11628;51.072;3.712;2023-06-14T13:47:36;9.23;;;4.20;;
22924;SDS011;11628;51.072;3.712;2023-06-14T13:50:03;5.75;;;4.63;;
22924;SDS011;11628;51.072;3.712;2023-06-14T13:52:29;7.13;;;4.22;;
22924;SDS011;11628;51.072;3.712;2023-06-14T13:54:55;6.75;;;3.92;;
22924;SDS011;11628;51.072;3.712;2023-06-14T13:57:21;12.18;;;4.30;;
22924;SDS011;11628;51.072;3.712;2023-06-14T13:59:47;9.90;;;4.10;;
22924;SDS011;11628;51.072;3.712;2023-06-14T14:02:13;6.43;;;4.38;;
22924;SDS011;11628;51.072;3.712;2023-06-14T14:04:40;5.70;;;4.43;;
22924;SDS011;11628;51.072;3.712;2023-06-14T14:07:06;8.85;;;4.68;;
22924;SDS011;11628;51.072;3.712;2023-06-14T14:09:32;7.40;;;3.90;;
22924;SDS011;11628;51.072;3.712;2023-06-14T14:11:59;6.82;;;3.92;;
22924;SDS011;11628;51.072;3.712;2023-06-14T14:14:26;9.73;;;4.28;;
22924;SDS011;11628;51.072;3.712;2023-06-14T14:16:52;11.32;;;3.80;;
22924;SDS011;11628;51.072;3.712;2023-06-14T14:19:19;17.42;;;4.50;;
22924;SDS011;11628;51.072;3.712;2023-06-14T14:21:46;7.78;;;4.20;;
22924;SDS011;11628;51.072;3.712;2023-06-14T14:24:12;7.07;;;4.00;;
22924;SDS011;11628;51.072;3.712;2023-06-14T14:26:38;5.95;;;4.28;;
22924;SDS011;11628;51.072;3.712;2023-06-14T14:29:04;5.57;;;4.40;;
22924;SDS011;11628;51.072;3.712;2023-06-14T14:31:30;7.95;;;3.65;;
22924;SDS011;11628;51.072;3.712;2023-06-14T14:33:56;9.88;;;3.38;;
22924;SDS011;11628;51.072;3.712;2023-06-14T14:36:22;7.55;;;3.42;;
22924;SDS011;11628;51.072;3.712;2023-06-14T14:38:48;15.60;;;4.28;;
22924;SDS011;11628;51.072;3.712;2023-06-14T14:41:13;12.73;;;3.80;;
22924;SDS011;11628;51.072;3.712;2023-06-14T14:43:39;10.43;;;3.10;;
22924;SDS011;11628;51.072;3.712;2023-06-14T14:46:05;7.25;;;3.63;;
22924;SDS011;11628;51.072;3.712;2023-06-14T14:48:31;7.13;;;3.30;;
22924;SDS011;11628;51.072;3.712;2023-06-14T14:50:56;14.27;;;3.20;;
22924;SDS011;11628;51.072;3.712;2023-06-14T14:53:22;9.27;;;3.20;;
22924;SDS011;11628;51.072;3.712;2023-06-14T14:55:48;7.28;;;3.00;;
22924;SDS011;11628;51.072;3.712;2023-06-14T14:58:14;7.22;;;3.20;;
22924;SDS011;11628;51.072;3.712;2023-06-14T15:00:44;6.32;;;3.78;;
22924;SDS011;11628;51.072;3.712;2023-06-14T15:03:10;6.63;;;2.90;;
22924;SDS011;11628;51.072;3.712;2023-06-14T15:05:36;7.38;;;3.95;;
22924;SDS011;11628;51.072;3.712;2023-06-14T15:08:02;3.88;;;2.70;;
22924;SDS011;11628;51.072;3.712;2023-06-14T15:10:28;6.05;;;2.83;;